Time;durP1;ratioP1;P1;durP2;ratioP2;P2;SDS_P1;SDS_P2;PMS_P1;PMS_P2;Temp;Humidity;BMP_temperature;BMP_pressure;BME280_temperature;BME280_humidity;BME280_pressure;Samples;Min_cycle;Max_cycle;Signal;HPM_P1;HPM_P2
2023/08/30 00:00:21;;;;;;;10.23;5.03;;;17.30;99.90;;;;;;4942556;28;20302;-75
2023/08/30 00:02:47;;;;;;;5.10;4.60;;;17.30;99.90;;;;;;4945446;28;20195;-75
2023/08/30 00:05:13;;;;;;;4.77;4.37;;;17.30;99.90;;;;;;4942525;28;20529;-76
2023/08/30 00:07:39;;;;;;;5.30;4.80;;;17.30;99.90;;;;;;4944120;28;20521;-75
2023/08/30 00:10:06;;;;;;;6.47;4.57;;;17.30;99.90;;;;;;4946768;28;20785;-76
2023/08/30 00:12:33;;;;;;;4.77;4.27;;;17.30;99.90;;;;;;4939488;28;20449;-76
2023/08/30 00:14:59;;;;;;;5.40;4.90;;;17.30;99.90;;;;;;4943069;28;20529;-76
2023/08/30 00:17:24;;;;;;;4.77;4.37;;;17.40;99.90;;;;;;4958254;28;20456;-76
2023/08/30 00:19:52;;;;;;;5.43;4.47;;;17.30;99.90;;;;;;4944515;28;20583;-76
2023/08/30 00:22:18;;;;;;;5.37;4.87;;;17.20;99.90;;;;;;4945120;28;20187;-75
2023/08/30 00:24:45;;;;;;;5.53;4.50;;;17.30;99.90;;;;;;4942555;28;20474;-76
2023/08/30 00:27:11;;;;;;;5.37;4.57;;;17.30;99.90;;;;;;4943929;28;21285;-75
2023/08/30 00:29:37;;;;;;;7.73;5.70;;;17.30;99.90;;;;;;4942752;28;20441;-75
2023/08/30 00:32:03;;;;;;;5.20;4.70;;;17.30;99.90;;;;;;4942789;28;20520;-76
2023/08/30 00:34:29;;;;;;;5.20;4.70;;;17.20;99.90;;;;;;4939617;28;20287;-77
2023/08/30 00:36:54;;;;;;;5.10;4.60;;;17.20;99.90;;;;;;4940418;28;20873;-76
2023/08/30 00:39:20;;;;;;;5.33;4.83;;;17.20;99.90;;;;;;4940692;28;20183;-76
2023/08/30 00:41:45;;;;;;;4.93;4.50;;;17.10;99.90;;;;;;4945368;28;20615;-75
2023/08/30 00:44:11;;;;;;;6.87;5.07;;;17.10;99.90;;;;;;4946102;28;20195;-76
2023/08/30 00:46:37;;;;;;;4.93;4.43;;;17.20;99.90;;;;;;4943550;28;20649;-77
2023/08/30 00:49:04;;;;;;;5.33;4.83;;;17.20;99.90;;;;;;4942853;28;20258;-76
2023/08/30 00:51:30;;;;;;;5.77;4.97;;;17.20;99.90;;;;;;4943346;28;20540;-77
2023/08/30 00:53:56;;;;;;;5.43;4.43;;;17.20;99.90;;;;;;4942507;28;20850;-76
2023/08/30 00:56:22;;;;;;;5.37;4.40;;;17.20;99.90;;;;;;4942953;28;20600;-76
2023/08/30 00:58:50;;;;;;;5.10;4.50;;;17.30;99.90;;;;;;4939126;28;20435;-76
2023/08/30 01:01:17;;;;;;;4.90;4.43;;;17.20;99.90;;;;;;4938419;28;20541;-76
2023/08/30 01:03:42;;;;;;;5.00;4.43;;;17.20;99.90;;;;;;4943522;28;20432;-76
2023/08/30 01:06:08;;;;;;;7.83;4.60;;;17.20;99.90;;;;;;4942714;28;20493;-75
2023/08/30 01:08:35;;;;;;;5.40;4.10;;;17.20;99.90;;;;;;4941945;28;20173;-75
2023/08/30 01:11:29;;;;;;;5.27;4.77;;;17.20;99.90;;;;;;4943268;28;20183;-75
2023/08/30 01:14:13;;;;;;;7.77;4.20;;;17.20;99.90;;;;;;4938224;28;20434;-76
2023/08/30 01:16:39;;;;;;;4.83;4.33;;;17.20;99.90;;;;;;4941312;28;20518;-76
2023/08/30 01:19:16;;;;;;;6.20;4.70;;;17.20;99.90;;;;;;4942065;28;20444;-75
2023/08/30 01:21:54;;;;;;;5.80;4.50;;;17.20;99.90;;;;;;4941304;28;20473;-75
2023/08/30 01:25:00;;;;;;;5.20;4.30;;;17.20;99.90;;;;;;4941290;28;20459;-75
2023/08/30 01:27:27;;;;;;;4.83;4.30;;;17.40;99.90;;;;;;4929487;28;20447;-76
2023/08/30 01:29:56;;;;;;;6.33;4.80;;;17.20;99.90;;;;;;4937447;28;20533;-76
2023/08/30 01:32:25;;;;;;;4.37;3.97;;;17.20;99.90;;;;;;4940174;28;20450;-76
2023/08/30 01:34:51;;;;;;;6.23;4.80;;;17.30;99.90;;;;;;4939420;28;21133;-76
2023/08/30 01:37:18;;;;;;;5.47;4.97;;;17.30;99.90;;;;;;4940884;28;20438;-76
2023/08/30 01:39:44;;;;;;;6.10;5.00;;;17.30;99.90;;;;;;4939624;28;20465;-76
2023/08/30 01:42:11;;;;;;;6.10;4.93;;;17.20;99.90;;;;;;4940415;28;20438;-76
2023/08/30 01:44:41;;;;;;;5.13;4.63;;;17.30;99.90;;;;;;4936962;28;20834;-76
2023/08/30 01:47:07;;;;;;;5.43;4.37;;;17.30;99.90;;;;;;4941072;28;20443;-75
2023/08/30 01:49:33;;;;;;;5.30;4.80;;;17.30;99.90;;;;;;4940256;28;20443;-77
2023/08/30 01:51:59;;;;;;;6.77;5.47;;;17.20;99.90;;;;;;4941452;28;20460;-76
2023/08/30 01:54:27;;;;;;;5.60;5.10;;;17.20;99.90;;;;;;4938069;28;20549;-76
2023/08/30 01:56:53;;;;;;;5.57;4.70;;;17.20;99.90;;;;;;4942823;28;20443;-76
2023/08/30 01:59:18;;;;;;;5.13;4.63;;;17.20;99.90;;;;;;4941323;28;20449;-76
2023/08/30 02:01:44;;;;;;;5.13;4.63;;;17.20;99.90;;;;;;4939050;28;20180;-76
2023/08/30 02:04:11;;;;;;;8.30;5.80;;;17.20;99.90;;;;;;4935284;28;20180;-76
2023/08/30 02:06:45;;;;;;;5.97;5.47;;;17.10;99.90;;;;;;4941757;28;20219;-76
2023/08/30 02:09:34;;;;;;;4.90;4.43;;;17.10;99.90;;;;;;4934905;28;20428;-76
2023/08/30 02:12:04;;;;;;;4.93;4.50;;;17.10;99.90;;;;;;4943258;28;20445;-75
2023/08/30 02:14:32;;;;;;;6.90;4.90;;;17.10;99.90;;;;;;4941314;28;21322;-74
2023/08/30 02:16:58;;;;;;;5.60;5.10;;;17.10;99.90;;;;;;4941011;28;20547;-75
2023/08/30 02:19:25;;;;;;;4.83;4.33;;;17.20;99.90;;;;;;4939184;28;20449;-75
2023/08/30 02:21:50;;;;;;;6.83;4.70;;;17.20;99.90;;;;;;4941240;28;20437;-75
2023/08/30 02:24:16;;;;;;;5.40;4.90;;;17.20;99.90;;;;;;4937201;28;20836;-76
2023/08/30 02:26:41;;;;;;;8.20;5.57;;;17.10;99.90;;;;;;4941282;28;20357;-76
2023/08/30 02:29:08;;;;;;;6.27;5.07;;;17.10;99.90;;;;;;4940273;28;20191;-76
2023/08/30 02:31:33;;;;;;;5.33;4.73;;;17.10;99.90;;;;;;4938900;28;20187;-75
2023/08/30 02:33:59;;;;;;;11.13;5.33;;;17.10;99.90;;;;;;4936862;28;20435;-75
2023/08/30 02:36:25;;;;;;;6.20;4.87;;;17.10;99.90;;;;;;4935096;28;20780;-76
2023/08/30 02:38:50;;;;;;;7.90;5.00;;;17.10;99.90;;;;;;4936389;28;20194;-76
2023/08/30 02:41:16;;;;;;;6.57;5.33;;;17.20;99.90;;;;;;4939351;28;20186;-76
2023/08/30 02:43:41;;;;;;;5.83;5.33;;;17.20;99.90;;;;;;4939243;28;20202;-75
2023/08/30 02:46:07;;;;;;;6.30;5.60;;;17.10;99.90;;;;;;4938009;28;20297;-76
2023/08/30 02:48:33;;;;;;;5.90;4.90;;;17.10;99.90;;;;;;4940642;28;20798;-76
2023/08/30 02:50:59;;;;;;;5.97;5.13;;;17.10;99.90;;;;;;4939034;28;20211;-76
2023/08/30 02:53:24;;;;;;;6.03;4.63;;;17.00;99.90;;;;;;4939135;28;20431;-76
2023/08/30 02:55:50;;;;;;;6.80;4.57;;;17.00;99.90;;;;;;4939379;28;20630;-76
2023/08/30 02:58:16;;;;;;;4.93;4.43;;;17.00;99.90;;;;;;4939342;28;20224;-76
2023/08/30 03:00:41;;;;;;;5.53;4.77;;;17.00;99.90;;;;;;4938918;28;20194;-76
2023/08/30 03:03:07;;;;;;;6.07;5.10;;;16.90;99.90;;;;;;4939508;28;20191;-76
2023/08/30 03:05:32;;;;;;;6.57;4.87;;;16.80;99.90;;;;;;4940137;28;20696;-76
2023/08/30 03:07:58;;;;;;;5.73;5.13;;;16.90;99.90;;;;;;4942631;28;20855;-76
2023/08/30 03:10:24;;;;;;;5.33;4.87;;;16.90;99.90;;;;;;4937757;28;20195;-75
2023/08/30 03:12:50;;;;;;;5.10;4.60;;;16.90;99.90;;;;;;4941118;28;20194;-76
2023/08/30 03:15:15;;;;;;;5.83;5.33;;;16.90;99.90;;;;;;4938678;28;20450;-74
2023/08/30 03:17:41;;;;;;;5.43;4.90;;;16.90;99.90;;;;;;4939606;28;20191;-76
2023/08/30 03:20:07;;;;;;;4.90;4.43;;;16.80;99.90;;;;;;4938860;28;20214;-76
2023/08/30 03:22:32;;;;;;;5.93;5.40;;;16.80;99.90;;;;;;4940937;28;20194;-76
2023/08/30 03:24:58;;;;;;;5.20;4.80;;;16.80;99.90;;;;;;4943424;28;20987;-76
2023/08/30 03:27:24;;;;;;;6.73;6.03;;;16.90;99.90;;;;;;4939571;28;20187;-76
2023/08/30 03:29:50;;;;;;;8.63;5.17;;;16.90;99.90;;;;;;4940670;28;20640;-76
2023/08/30 03:32:18;;;;;;;5.60;5.10;;;16.90;99.90;;;;;;4937915;28;20646;-75
2023/08/30 03:34:47;;;;;;;5.50;4.97;;;16.90;99.90;;;;;;4945389;28;20310;-76
2023/08/30 03:37:14;;;;;;;5.13;4.60;;;16.90;99.90;;;;;;4943196;28;20529;-76
2023/08/30 03:39:40;;;;;;;5.40;4.90;;;16.90;99.90;;;;;;4939699;28;21071;-77
2023/08/30 03:42:06;;;;;;;4.90;4.40;;;16.90;99.90;;;;;;4943094;28;20467;-76
2023/08/30 03:44:31;;;;;;;5.50;5.00;;;16.90;99.90;;;;;;4946902;28;20279;-76
2023/08/30 03:46:57;;;;;;;5.07;4.63;;;16.80;99.90;;;;;;4944430;28;20219;-76
2023/08/30 03:49:23;;;;;;;5.70;5.20;;;16.80;99.90;;;;;;4943696;28;20214;-76
2023/08/30 03:51:48;;;;;;;8.30;5.83;;;16.80;99.90;;;;;;4939428;28;20211;-76
2023/08/30 03:54:16;;;;;;;5.47;4.97;;;16.80;99.90;;;;;;4944656;28;20189;-76
2023/08/30 03:56:42;;;;;;;5.97;5.17;;;16.80;99.90;;;;;;4943568;28;20254;-76
2023/08/30 03:59:08;;;;;;;6.03;5.27;;;16.80;99.90;;;;;;4939477;28;20894;-76
2023/08/30 04:01:33;;;;;;;6.73;6.13;;;16.70;99.90;;;;;;4942237;28;20451;-76
2023/08/30 04:03:59;;;;;;;6.80;5.53;;;16.80;99.90;;;;;;4938598;28;20184;-76
2023/08/30 04:06:24;;;;;;;6.33;5.73;;;16.80;99.90;;;;;;4942505;28;20208;-76
2023/08/30 04:08:50;;;;;;;7.27;6.53;;;16.80;99.90;;;;;;4944214;28;20183;-76
2023/08/30 04:11:15;;;;;;;7.00;6.30;;;16.80;99.90;;;;;;4944219;28;20184;-75
2023/08/30 04:13:41;;;;;;;7.07;5.93;;;16.80;99.90;;;;;;4942517;28;20183;-75
2023/08/30 04:16:06;;;;;;;6.60;5.97;;;16.80;99.90;;;;;;4945101;28;20207;-76
2023/08/30 04:18:32;;;;;;;6.93;6.33;;;16.70;99.90;;;;;;4943064;28;20187;-76
2023/08/30 04:20:59;;;;;;;6.50;5.90;;;16.70;99.90;;;;;;4942252;28;20241;-76
2023/08/30 04:23:24;;;;;;;7.50;6.20;;;16.80;99.90;;;;;;4939892;28;20211;-76
2023/08/30 04:25:50;;;;;;;6.00;5.40;;;16.80;99.90;;;;;;4939859;28;21107;-76
2023/08/30 04:28:15;;;;;;;6.60;6.00;;;16.70;99.90;;;;;;4942313;28;20590;-76
2023/08/30 04:30:41;;;;;;;7.53;5.83;;;16.70;99.90;;;;;;4941819;28;20214;-76
2023/08/30 04:33:07;;;;;;;6.43;5.90;;;16.70;99.90;;;;;;4942649;28;20233;-76
2023/08/30 04:35:33;;;;;;;7.03;6.00;;;16.80;99.90;;;;;;4940600;28;20724;-76
2023/08/30 04:38:00;;;;;;;6.57;5.73;;;16.70;99.90;;;;;;4943240;28;20345;-76
2023/08/30 04:40:25;;;;;;;7.63;5.47;;;16.70;99.90;;;;;;4945675;28;20554;-75
2023/08/30 04:42:51;;;;;;;6.70;6.00;;;16.70;99.90;;;;;;4944150;28;21130;-75
2023/08/30 04:45:16;;;;;;;5.63;5.13;;;16.70;99.90;;;;;;4940809;28;20294;-74
2023/08/30 04:47:45;;;;;;;6.30;5.60;;;16.60;99.90;;;;;;4942900;28;20661;-75
2023/08/30 04:50:11;;;;;;;6.73;6.00;;;16.60;99.90;;;;;;4942986;28;20176;-75
2023/08/30 04:52:36;;;;;;;9.43;6.27;;;16.60;99.90;;;;;;4943871;28;20494;-76
2023/08/30 04:55:02;;;;;;;6.87;6.17;;;16.60;99.90;;;;;;4944379;28;20203;-76
2023/08/30 04:57:28;;;;;;;7.90;6.00;;;16.60;99.90;;;;;;4943633;28;20772;-76
2023/08/30 04:59:55;;;;;;;6.80;6.20;;;16.60;99.90;;;;;;4940511;28;20526;-76
2023/08/30 05:02:20;;;;;;;11.33;6.20;;;16.70;99.90;;;;;;4937273;28;20183;-76
2023/08/30 05:04:46;;;;;;;8.70;7.30;;;16.60;99.90;;;;;;4942368;28;20553;-74
2023/08/30 05:07:11;;;;;;;6.50;5.90;;;16.70;99.90;;;;;;4939547;28;20258;-76
2023/08/30 05:09:37;;;;;;;7.17;6.50;;;16.60;99.90;;;;;;4940829;28;20183;-75
2023/08/30 05:12:03;;;;;;;8.77;5.77;;;16.60;99.90;;;;;;4941177;28;20267;-76
2023/08/30 05:14:28;;;;;;;7.03;6.33;;;16.60;99.90;;;;;;4941765;28;20231;-76
2023/08/30 05:16:54;;;;;;;6.87;6.27;;;16.60;99.90;;;;;;4941862;28;20249;-77
2023/08/30 05:19:20;;;;;;;6.60;6.00;;;16.70;99.90;;;;;;4943303;28;20266;-76
2023/08/30 05:21:46;;;;;;;7.20;6.50;;;16.70;99.90;;;;;;4942332;28;21412;-76
2023/08/30 05:24:11;;;;;;;6.23;5.63;;;16.70;99.90;;;;;;4942790;28;20191;-76
2023/08/30 05:26:37;;;;;;;9.43;6.30;;;16.70;99.90;;;;;;4944181;28;20506;-76
2023/08/30 05:29:03;;;;;;;7.03;6.00;;;16.70;99.90;;;;;;4942865;28;20226;-75
2023/08/30 05:31:29;;;;;;;6.30;5.70;;;16.70;99.90;;;;;;4941915;28;20179;-76
2023/08/30 05:33:54;;;;;;;6.60;6.00;;;16.80;99.90;;;;;;4942097;28;20446;-76
2023/08/30 05:36:20;;;;;;;9.73;6.00;;;16.80;99.90;;;;;;4942182;28;20721;-76
2023/08/30 05:38:46;;;;;;;7.63;6.80;;;16.90;99.90;;;;;;4943907;28;20179;-76
2023/08/30 05:41:12;;;;;;;6.53;6.00;;;16.80;99.90;;;;;;4941034;28;20183;-76
2023/08/30 05:43:37;;;;;;;6.27;5.67;;;16.80;99.90;;;;;;4944498;28;20924;-75
2023/08/30 05:46:03;;;;;;;6.70;6.10;;;16.80;99.90;;;;;;4941578;28;20215;-76
2023/08/30 05:48:29;;;;;;;6.10;5.53;;;16.80;99.90;;;;;;4943529;28;20550;-77
2023/08/30 05:50:55;;;;;;;7.10;5.87;;;16.80;99.90;;;;;;4941449;28;20187;-75
2023/08/30 05:53:20;;;;;;;9.10;6.57;;;16.80;99.90;;;;;;4942608;28;20959;-75
2023/08/30 05:55:46;;;;;;;8.70;5.90;;;16.80;99.90;;;;;;4941886;28;20222;-76
2023/08/30 05:58:13;;;;;;;6.60;6.00;;;16.80;99.90;;;;;;4942677;28;20201;-75
2023/08/30 06:00:39;;;;;;;7.10;5.83;;;16.90;99.90;;;;;;4940983;28;20649;-75
2023/08/30 06:03:04;;;;;;;7.07;5.70;;;16.90;99.90;;;;;;4937916;28;20534;-75
2023/08/30 06:05:30;;;;;;;13.30;6.00;;;17.00;99.90;;;;;;4939893;28;20203;-75
2023/08/30 06:07:56;;;;;;;9.60;6.70;;;16.90;99.90;;;;;;4937425;28;20184;-76
2023/08/30 06:10:23;;;;;;;6.13;5.50;;;16.90;99.90;;;;;;4936934;28;20183;-75
2023/08/30 06:12:48;;;;;;;7.57;6.10;;;16.90;99.90;;;;;;4940293;28;20183;-76
2023/08/30 06:15:14;;;;;;;6.53;5.83;;;16.90;99.90;;;;;;4944058;28;20906;-76
2023/08/30 06:17:40;;;;;;;7.80;6.40;;;16.90;99.90;;;;;;4942974;28;20183;-76
2023/08/30 06:20:06;;;;;;;7.33;5.90;;;16.90;99.90;;;;;;4939446;28;20186;-76
2023/08/30 06:22:32;;;;;;;6.23;5.30;;;16.90;99.90;;;;;;4943426;28;20191;-76
2023/08/30 06:24:57;;;;;;;6.33;5.70;;;16.90;99.90;;;;;;4942216;28;20844;-75
2023/08/30 06:27:24;;;;;;;8.63;6.37;;;16.90;99.90;;;;;;4941658;28;20191;-76
2023/08/30 06:29:50;;;;;;;8.40;5.97;;;16.90;99.90;;;;;;4938694;28;20194;-77
2023/08/30 06:32:16;;;;;;;7.43;6.50;;;16.90;99.90;;;;;;4941394;28;20438;-77
2023/08/30 06:34:42;;;;;;;8.07;5.80;;;16.90;99.90;;;;;;4940532;28;20909;-77
2023/08/30 06:37:08;;;;;;;5.80;5.00;;;17.00;99.90;;;;;;4940312;28;20574;-76
2023/08/30 06:39:35;;;;;;;6.83;5.80;;;17.00;99.90;;;;;;4940167;28;20257;-76
2023/08/30 06:42:01;;;;;;;8.33;6.30;;;16.80;99.90;;;;;;4938705;28;20638;-76
2023/08/30 06:44:27;;;;;;;6.30;5.80;;;16.90;99.90;;;;;;4940940;28;20617;-77
2023/08/30 06:46:52;;;;;;;6.33;5.30;;;17.10;99.90;;;;;;4940558;28;20466;-76
2023/08/30 06:49:18;;;;;;;5.87;5.33;;;17.10;99.90;;;;;;4944535;28;20447;-76
2023/08/30 06:51:43;;;;;;;7.50;5.30;;;17.10;99.90;;;;;;4941274;28;20203;-77
2023/08/30 06:54:09;;;;;;;6.43;5.20;;;17.20;99.90;;;;;;4942403;28;20664;-76
2023/08/30 06:56:34;;;;;;;7.73;5.33;;;17.20;99.90;;;;;;4943972;28;20674;-76
2023/08/30 06:59:00;;;;;;;6.83;5.37;;;17.20;99.90;;;;;;4938367;28;20194;-76
2023/08/30 07:01:25;;;;;;;8.70;5.90;;;17.20;99.90;;;;;;4937321;28;20821;-76
2023/08/30 07:03:51;;;;;;;6.17;5.27;;;17.20;99.90;;;;;;4939030;28;20761;-76
2023/08/30 07:06:16;;;;;;;8.30;7.40;;;17.30;99.90;;;;;;4936150;28;20560;-76
2023/08/30 07:08:42;;;;;;;8.07;5.30;;;17.40;99.90;;;;;;4940565;28;20191;-76
2023/08/30 07:11:08;;;;;;;5.07;4.60;;;17.40;99.90;;;;;;4937566;28;20198;-76
2023/08/30 07:13:34;;;;;;;6.37;4.90;;;17.40;99.90;;;;;;4944178;28;20517;-76
2023/08/30 07:15:59;;;;;;;6.10;4.70;;;17.40;99.90;;;;;;4939429;28;20219;-75
2023/08/30 07:18:25;;;;;;;5.73;5.17;;;17.40;99.90;;;;;;4945723;28;20665;-75
2023/08/30 07:20:50;;;;;;;4.80;4.30;;;17.40;99.90;;;;;;4941300;28;20187;-73
2023/08/30 07:23:16;;;;;;;5.50;4.17;;;17.50;99.90;;;;;;4944780;28;20213;-73
2023/08/30 07:25:41;;;;;;;6.47;5.20;;;17.50;99.90;;;;;;4945682;28;20215;-74
2023/08/30 07:28:08;;;;;;;6.20;5.57;;;17.50;99.90;;;;;;4942924;28;20203;-72
2023/08/30 07:30:35;;;;;;;5.07;4.40;;;17.50;99.90;;;;;;4932070;28;20194;-72
2023/08/30 07:33:00;;;;;;;8.13;6.33;;;17.50;99.90;;;;;;4934990;28;20456;-72
2023/08/30 07:35:26;;;;;;;4.70;4.30;;;17.50;99.90;;;;;;4939611;28;20463;-76
2023/08/30 07:37:51;;;;;;;5.60;5.03;;;17.60;99.90;;;;;;4940928;28;20187;-77
2023/08/30 07:40:17;;;;;;;6.27;5.67;;;17.50;99.90;;;;;;4941375;28;20504;-74
2023/08/30 07:42:43;;;;;;;7.00;5.17;;;17.60;99.90;;;;;;4940436;28;20206;-76
2023/08/30 07:45:09;;;;;;;5.70;5.10;;;17.70;99.90;;;;;;4941606;28;20217;-74
2023/08/30 07:47:35;;;;;;;5.80;5.20;;;17.70;99.90;;;;;;4940180;28;20729;-75
2023/08/30 07:50:00;;;;;;;6.83;4.90;;;17.70;99.90;;;;;;4944566;28;20457;-75
2023/08/30 07:52:26;;;;;;;6.70;4.87;;;17.70;99.90;;;;;;4947453;28;20190;-74
2023/08/30 07:54:51;;;;;;;6.77;5.17;;;17.70;99.90;;;;;;4951111;28;20214;-73
2023/08/30 07:57:17;;;;;;;7.77;4.97;;;17.80;99.90;;;;;;4942334;28;20280;-74
2023/08/30 07:59:42;;;;;;;6.00;5.03;;;17.80;99.90;;;;;;4939683;28;20647;-73
2023/08/30 08:02:08;;;;;;;6.13;5.53;;;17.80;99.90;;;;;;4938939;28;20184;-73
2023/08/30 08:04:36;;;;;;;6.00;5.30;;;17.80;99.90;;;;;;4938412;28;20218;-73
2023/08/30 08:07:03;;;;;;;5.97;5.37;;;17.90;99.90;;;;;;4933278;28;20439;-72
2023/08/30 08:09:29;;;;;;;7.20;5.87;;;17.90;99.90;;;;;;4941821;28;20437;-72
2023/08/30 08:11:56;;;;;;;6.80;5.60;;;18.00;99.90;;;;;;4940987;28;20439;-73
2023/08/30 08:14:22;;;;;;;8.23;5.67;;;18.00;99.90;;;;;;4940361;28;20195;-72
2023/08/30 08:16:48;;;;;;;6.67;6.00;;;18.00;99.90;;;;;;4941289;28;20454;-73
2023/08/30 08:19:13;;;;;;;7.83;5.60;;;18.00;99.90;;;;;;4936558;28;20825;-73
2023/08/30 08:21:39;;;;;;;6.90;5.03;;;18.10;99.90;;;;;;4940224;28;21719;-73
2023/08/30 08:24:05;;;;;;;6.13;5.10;;;18.20;99.90;;;;;;4939442;28;20183;-73
2023/08/30 08:26:30;;;;;;;6.00;5.40;;;18.20;99.90;;;;;;4938498;28;20756;-74
2023/08/30 08:28:56;;;;;;;6.23;5.63;;;18.20;99.90;;;;;;4940532;28;20489;-74
2023/08/30 08:31:22;;;;;;;9.00;5.30;;;18.20;99.90;;;;;;4943709;28;20175;-73
2023/08/30 08:33:52;;;;;;;5.20;4.70;;;18.30;99.90;;;;;;4939734;28;20921;-74
2023/08/30 08:36:19;;;;;;;5.90;5.27;;;18.30;99.90;;;;;;4940624;28;20455;-74
2023/08/30 08:38:44;;;;;;;6.70;5.70;;;18.40;99.90;;;;;;4941422;28;20435;-74
2023/08/30 08:41:14;;;;;;;5.37;4.87;;;18.60;99.90;;;;;;4941319;28;20416;-74
2023/08/30 08:43:42;;;;;;;6.70;5.90;;;18.60;99.90;;;;;;4938818;28;20196;-75
2023/08/30 08:46:09;;;;;;;6.40;5.80;;;18.60;99.90;;;;;;4941671;28;20594;-75
2023/08/30 08:48:40;;;;;;;5.97;5.37;;;18.70;99.90;;;;;;4939108;28;20920;-74
2023/08/30 08:51:06;;;;;;;6.07;5.47;;;18.90;99.90;;;;;;4936225;28;20544;-75
2023/08/30 08:53:33;;;;;;;6.03;5.43;;;18.90;99.90;;;;;;4942644;28;20529;-74
2023/08/30 08:56:00;;;;;;;6.80;5.70;;;19.00;99.90;;;;;;4940214;28;20207;-75
2023/08/30 08:58:26;;;;;;;5.70;5.20;;;19.10;99.90;;;;;;4940975;28;20426;-73
2023/08/30 09:00:52;;;;;;;5.27;4.80;;;19.10;99.90;;;;;;4942768;28;21010;-74
2023/08/30 09:03:18;;;;;;;4.77;4.37;;;19.10;99.90;;;;;;4936088;28;20697;-74
2023/08/30 09:05:46;;;;;;;4.87;4.37;;;19.10;99.90;;;;;;4936764;28;20482;-74
2023/08/30 09:08:13;;;;;;;5.10;4.23;;;19.00;99.90;;;;;;4938074;28;20188;-74
2023/08/30 09:10:39;;;;;;;5.77;4.90;;;19.00;99.90;;;;;;4939760;28;20451;-74
2023/08/30 09:13:05;;;;;;;5.37;4.60;;;19.00;99.90;;;;;;4936788;28;20483;-75
2023/08/30 09:15:32;;;;;;;4.87;4.47;;;18.90;99.90;;;;;;4939525;28;20482;-73
2023/08/30 09:17:58;;;;;;;5.07;4.67;;;19.00;99.90;;;;;;4940175;28;21068;-74
2023/08/30 09:20:23;;;;;;;6.00;4.40;;;19.10;99.90;;;;;;4939540;28;20514;-74
2023/08/30 09:22:50;;;;;;;4.53;4.13;;;19.10;99.90;;;;;;4937647;28;20559;-74
2023/08/30 09:25:27;;;;;;;5.67;4.90;;;19.10;99.90;;;;;;4939284;28;20216;-74
2023/08/30 09:28:01;;;;;;;6.23;5.03;;;19.10;99.90;;;;;;4936356;28;20410;-75
2023/08/30 09:30:27;;;;;;;4.60;4.20;;;19.30;99.90;;;;;;4935663;28;20434;-75
2023/08/30 09:32:53;;;;;;;5.10;4.43;;;19.30;99.90;;;;;;4941477;28;20439;-73
2023/08/30 09:35:18;;;;;;;5.60;4.83;;;19.30;99.90;;;;;;4938264;28;20581;-73
2023/08/30 09:37:45;;;;;;;5.20;4.70;;;19.40;99.90;;;;;;4941335;28;20270;-73
2023/08/30 09:40:11;;;;;;;5.20;4.70;;;19.40;99.90;;;;;;4941068;28;20665;-74
2023/08/30 09:42:42;;;;;;;5.37;4.87;;;19.40;99.90;;;;;;4942778;28;20461;-74
2023/08/30 09:45:23;;;;;;;6.50;5.03;;;19.40;99.90;;;;;;4939580;28;20284;-73
2023/08/30 09:47:49;;;;;;;5.23;4.77;;;19.40;99.90;;;;;;4954782;28;20509;-73
2023/08/30 09:50:19;;;;;;;4.80;4.23;;;19.60;99.90;;;;;;4939287;28;20538;-73
2023/08/30 09:52:48;;;;;;;5.13;4.30;;;19.50;99.90;;;;;;4940241;28;20439;-73
2023/08/30 09:55:15;;;;;;;4.90;4.40;;;19.60;99.90;;;;;;4935267;28;20454;-75
2023/08/30 09:57:43;;;;;;;5.90;4.57;;;19.70;99.90;;;;;;4940150;28;20477;-73
2023/08/30 10:00:12;;;;;;;6.33;5.27;;;19.80;99.90;;;;;;4939108;28;20453;-73
2023/08/30 10:02:41;;;;;;;6.30;4.00;;;19.60;99.90;;;;;;4937723;28;20494;-73
2023/08/30 10:05:08;;;;;;;5.40;4.90;;;19.70;99.90;;;;;;4939488;28;20439;-72
2023/08/30 10:07:36;;;;;;;4.27;3.83;;;19.70;99.90;;;;;;4939292;28;20423;-73
2023/08/30 10:10:04;;;;;;;5.37;3.93;;;19.80;99.90;;;;;;4937582;28;20962;-73
2023/08/30 10:12:32;;;;;;;5.00;4.50;;;19.90;99.90;;;;;;4936406;28;20439;-72
2023/08/30 10:14:57;;;;;;;9.10;5.07;;;20.10;99.90;;;;;;4936404;28;20442;-71
2023/08/30 10:17:28;;;;;;;4.73;4.27;;;20.20;99.90;;;;;;4939093;28;20486;-71
2023/08/30 10:19:55;;;;;;;5.37;4.60;;;20.20;99.90;;;;;;4937119;28;20632;-71
2023/08/30 10:22:22;;;;;;;8.50;4.60;;;20.30;99.90;;;;;;4935548;28;20775;-71
2023/08/30 10:24:56;;;;;;;4.80;4.00;;;20.40;99.90;;;;;;4939496;28;20499;-73
2023/08/30 10:27:23;;;;;;;5.53;4.40;;;20.40;99.90;;;;;;4956022;28;20437;-71
2023/08/30 10:29:50;;;;;;;5.33;4.30;;;20.40;99.90;;;;;;4932788;28;20475;-73
2023/08/30 10:32:21;;;;;;;4.90;4.40;;;20.40;99.90;;;;;;4938756;28;20427;-73
2023/08/30 10:34:51;;;;;;;6.63;4.00;;;20.40;99.90;;;;;;4940286;28;20486;-72
2023/08/30 10:37:23;;;;;;;4.70;4.20;;;20.50;99.90;;;;;;4938110;28;20811;-73
2023/08/30 10:39:49;;;;;;;4.03;3.70;;;20.50;99.90;;;;;;4939547;28;20408;-73
2023/08/30 10:42:16;;;;;;;4.60;4.10;;;20.50;99.90;;;;;;4938880;28;20418;-73
2023/08/30 10:44:51;;;;;;;5.83;4.47;;;20.50;99.90;;;;;;4936640;28;20211;-72
2023/08/30 10:47:30;;;;;;;5.13;4.33;;;20.50;99.90;;;;;;4953005;28;20495;-72
2023/08/30 10:49:57;;;;;;;5.40;4.10;;;20.50;99.90;;;;;;4939851;28;20510;-72
2023/08/30 10:52:24;;;;;;;4.93;4.30;;;20.50;99.90;;;;;;4939781;28;20510;-72
2023/08/30 10:54:50;;;;;;;5.23;3.87;;;20.60;99.90;;;;;;4936293;28;20451;-73
2023/08/30 10:57:21;;;;;;;4.30;3.77;;;20.70;99.90;;;;;;4936459;28;20766;-72
2023/08/30 11:00:07;;;;;;;10.10;3.87;;;20.70;99.90;;;;;;4935780;28;20449;-71
2023/08/30 11:02:33;;;;;;;4.47;3.50;;;20.80;99.90;;;;;;4934556;28;20461;-71
2023/08/30 11:05:05;;;;;;;4.67;4.27;;;20.90;99.90;;;;;;4936626;28;20949;-72
2023/08/30 11:07:31;;;;;;;4.70;3.80;;;20.90;99.90;;;;;;4939181;28;20917;-73
2023/08/30 11:09:57;;;;;;;4.67;4.27;;;21.00;99.90;;;;;;4934894;28;20486;-72
2023/08/30 11:12:23;;;;;;;4.40;3.60;;;21.00;99.90;;;;;;4936141;28;20226;-72
2023/08/30 11:14:50;;;;;;;5.07;4.50;;;20.90;99.90;;;;;;4935801;28;20435;-71
2023/08/30 11:17:19;;;;;;;5.10;3.70;;;21.00;99.90;;;;;;4940278;28;20469;-71
2023/08/30 11:19:45;;;;;;;4.70;4.30;;;21.00;99.90;;;;;;4934340;28;20509;-70
2023/08/30 11:22:12;;;;;;;4.17;3.77;;;21.10;99.90;;;;;;4937519;28;20517;-71
2023/08/30 11:24:39;;;;;;;5.60;4.97;;;21.00;99.90;;;;;;4934428;28;20466;-71
2023/08/30 11:27:04;;;;;;;5.73;4.50;;;21.00;99.90;;;;;;4938963;28;20522;-71
2023/08/30 11:29:30;;;;;;;5.90;3.70;;;21.00;99.90;;;;;;4934482;28;20474;-71
2023/08/30 11:31:55;;;;;;;5.10;4.60;;;21.10;99.90;;;;;;4938451;28;20222;-71
2023/08/30 11:34:24;;;;;;;5.30;3.60;;;21.30;99.90;;;;;;4936790;28;20670;-71
2023/08/30 11:36:50;;;;;;;4.13;3.73;;;21.30;99.90;;;;;;4936940;28;20183;-71
2023/08/30 11:39:17;;;;;;;5.57;4.20;;;21.30;99.90;;;;;;4936845;28;20419;-71
2023/08/30 11:41:43;;;;;;;3.83;3.53;;;21.40;99.90;;;;;;4931060;28;20512;-71
2023/08/30 11:44:09;;;;;;;4.30;3.90;;;21.60;99.90;;;;;;4933659;28;20798;-71
2023/08/30 11:46:35;;;;;;;5.57;3.83;;;21.60;99.90;;;;;;4938413;28;21296;-71
2023/08/30 11:49:02;;;;;;;4.67;3.40;;;21.70;99.90;;;;;;4941681;28;20430;-70
2023/08/30 11:51:29;;;;;;;6.10;3.70;;;21.70;99.90;;;;;;4936400;28;20183;-71
2023/08/30 11:53:55;;;;;;;5.70;3.83;;;21.70;99.90;;;;;;4938316;28;20643;-71
2023/08/30 11:56:22;;;;;;;4.20;3.57;;;21.90;99.90;;;;;;4942628;28;20461;-72
2023/08/30 11:58:48;;;;;;;4.30;3.80;;;22.00;99.90;;;;;;4942904;28;20945;-71
2023/08/30 12:01:14;;;;;;;4.53;3.80;;;22.10;99.90;;;;;;4942068;28;20442;-72
2023/08/30 12:03:41;;;;;;;4.07;3.57;;;22.10;99.90;;;;;;4943318;28;20793;-71
2023/08/30 12:06:11;;;;;;;7.63;3.50;;;22.30;99.90;;;;;;4938780;28;20466;-71
2023/08/30 12:08:37;;;;;;;4.00;3.53;;;22.40;99.90;;;;;;4941737;28;20433;-71
2023/08/30 12:11:02;;;;;;;4.17;3.77;;;22.60;99.90;;;;;;4939078;28;20960;-69
2023/08/30 12:13:29;;;;;;;3.57;3.27;;;23.00;99.90;;;;;;4939385;28;20207;-70
2023/08/30 12:15:56;;;;;;;3.70;3.40;;;23.20;99.90;;;;;;4941060;28;20199;-71
2023/08/30 12:18:27;;;;;;;5.93;3.40;;;23.30;99.90;;;;;;4936321;28;20959;-71
2023/08/30 12:20:53;;;;;;;4.23;3.83;;;23.60;99.90;;;;;;4938982;28;20502;-71
2023/08/30 12:23:26;;;;;;;4.30;3.90;;;23.70;99.90;;;;;;4935269;28;20447;-73
2023/08/30 12:26:06;;;;;;;4.70;3.50;;;23.80;99.90;;;;;;4938076;28;20277;-72
2023/08/30 12:28:34;;;;;;;4.33;3.30;;;24.00;99.90;;;;;;4934586;28;21052;-72
2023/08/30 12:30:59;;;;;;;3.87;3.30;;;24.20;99.90;;;;;;4940030;28;20953;-72
2023/08/30 12:33:26;;;;;;;4.50;3.83;;;24.50;99.90;;;;;;4941148;28;20447;-74
2023/08/30 12:35:55;;;;;;;3.67;3.10;;;24.60;99.90;;;;;;4940777;28;20654;-73
2023/08/30 12:38:22;;;;;;;3.70;3.00;;;24.40;99.90;;;;;;4942682;28;20447;-73
2023/08/30 12:40:50;;;;;;;4.40;4.00;;;24.40;99.90;;;;;;4939904;28;20799;-73
2023/08/30 12:43:16;;;;;;;4.20;3.60;;;24.40;99.90;;;;;;4940993;28;20431;-75